Time;durP1;ratioP1;P1;durP2;ratioP2;P2;SDS_P1;SDS_P2;PMS_P1;PMS_P2;Temp;Humidity;BMP_temperature;BMP_pressure;BME280_temperature;BME280_humidity;BME280_pressure;Samples;Min_cycle;Max_cycle;Signal;HPM_P1;HPM_P2
2023/05/25 00:00:17;;;;;;;3.00;2.67;;;12.70;99.90;;;12.89;64.33;101187.81;5012354;28;20680;-66
2023/05/25 00:02:47;;;;;;;1.90;1.70;;;12.60;99.90;;;12.88;64.41;101191.38;5020529;28;20632;-67
2023/05/25 00:05:17;;;;;;;3.07;2.50;;;12.60;99.90;;;12.82;64.85;101197.06;5030966;28;20605;-66
2023/05/25 00:07:44;;;;;;;3.50;2.30;;;12.50;99.90;;;12.80;64.65;101198.97;5011061;28;20637;-65
2023/05/25 00:10:11;;;;;;;3.77;2.27;;;12.60;99.90;;;12.72;65.04;101185.56;5016525;28;20778;-66
2023/05/25 00:12:39;;;;;;;2.30;2.10;;;12.40;99.90;;;12.65;65.63;101184.34;5014467;28;20618;-66
2023/05/25 00:15:07;;;;;;;3.43;2.80;;;12.40;99.90;;;12.64;65.21;101182.69;5010530;28;20617;-66
2023/05/25 00:17:35;;;;;;;6.40;2.73;;;12.40;99.90;;;12.68;65.53;101186.75;5027896;28;21314;-67
2023/05/25 00:20:06;;;;;;;2.53;2.33;;;12.40;99.90;;;12.63;65.11;101186.25;5028541;28;20687;-67
2023/05/25 00:22:37;;;;;;;6.30;1.87;;;12.40;99.90;;;12.51;66.66;101181.88;5023769;28;21145;-67
2023/05/25 00:25:05;;;;;;;2.97;1.93;;;12.30;99.90;;;12.45;67.18;101188.38;5015270;28;20711;-69
2023/05/25 00:27:32;;;;;;;3.03;2.53;;;12.20;99.90;;;12.40;66.98;101193.09;5022819;28;20671;-68
2023/05/25 00:29:59;;;;;;;4.50;2.33;;;12.10;99.90;;;12.38;66.88;101190.59;5010287;28;20653;-66
2023/05/25 00:32:26;;;;;;;3.80;2.53;;;12.10;99.90;;;12.35;67.42;101190.81;5018406;28;21014;-66
2023/05/25 00:34:54;;;;;;;2.83;2.13;;;12.10;99.90;;;12.34;67.42;101188.31;5028384;28;20628;-66
2023/05/25 00:37:21;;;;;;;3.53;2.60;;;12.10;99.90;;;12.28;67.83;101179.13;5025448;28;21305;-66
2023/05/25 00:39:48;;;;;;;4.37;2.60;;;12.00;99.90;;;12.24;67.90;101185.50;5014532;28;21041;-67
2023/05/25 00:42:15;;;;;;;5.80;2.20;;;12.00;99.90;;;12.17;68.77;101189.50;5010301;28;20624;-66
2023/05/25 00:44:42;;;;;;;3.10;2.43;;;11.90;99.90;;;12.18;68.70;101185.91;5023345;28;20680;-69
2023/05/25 00:47:10;;;;;;;6.83;2.40;;;11.90;99.90;;;12.15;68.98;101186.16;5019400;28;21337;-67
2023/05/25 00:49:40;;;;;;;2.50;2.30;;;11.90;99.90;;;12.10;69.21;101190.84;5018336;28;20665;-69
2023/05/25 00:52:12;;;;;;;3.43;2.10;;;11.80;99.90;;;12.11;69.50;101191.69;5022789;28;20643;-66
2023/05/25 00:54:39;;;;;;;2.20;2.10;;;11.90;99.90;;;12.02;69.52;101189.72;5024761;28;20638;-67
2023/05/25 00:57:07;;;;;;;7.87;2.80;;;11.80;99.90;;;12.00;70.27;101189.81;5031282;28;21531;-66
2023/05/25 00:59:54;;;;;;;2.23;2.07;;;11.80;99.90;;;11.97;71.04;101182.19;5023685;28;20695;-66
2023/05/25 01:02:23;;;;;;;3.40;2.10;;;11.70;99.90;;;11.92;71.18;101183.44;5026155;28;20624;-66
2023/05/25 01:04:53;;;;;;;2.73;2.40;;;11.70;99.90;;;11.92;71.07;101189.53;5017210;28;20646;-66
2023/05/25 01:07:25;;;;;;;3.07;2.53;;;11.70;99.90;;;11.92;71.49;101194.75;5030818;28;20628;-66
2023/05/25 01:10:01;;;;;;;7.93;2.63;;;11.70;99.90;;;11.88;71.83;101195.06;5026468;28;20747;-66
2023/05/25 01:12:29;;;;;;;3.73;2.50;;;11.60;99.90;;;11.88;71.76;101198.53;5007279;28;20640;-67
2023/05/25 01:14:57;;;;;;;3.20;2.47;;;11.60;99.90;;;11.87;72.27;101198.59;5028176;28;20683;-66
2023/05/25 01:17:27;;;;;;;2.60;2.40;;;11.60;99.90;;;11.84;71.81;101197.03;5028499;28;20663;-67
2023/05/25 01:19:57;;;;;;;2.00;1.80;;;11.60;99.90;;;11.83;72.08;101192.75;5026715;28;20656;-66
2023/05/25 01:22:50;;;;;;;1.73;1.63;;;11.60;99.90;;;11.85;72.45;101198.72;5030372;28;20635;-66
2023/05/25 01:25:38;;;;;;;2.73;2.20;;;11.60;99.90;;;11.80;71.77;101200.78;5027006;28;20620;-65
2023/05/25 01:28:10;;;;;;;3.73;2.50;;;11.60;99.90;;;11.78;72.80;101197.44;5013041;28;21021;-67
2023/05/25 01:30:41;;;;;;;1.90;1.80;;;11.50;99.90;;;11.74;72.78;101196.00;5012260;28;20747;-67
2023/05/25 01:33:09;;;;;;;3.90;2.63;;;11.50;99.90;;;11.68;73.77;101192.03;5031236;28;20625;-69
2023/05/25 01:35:39;;;;;;;6.40;2.20;;;11.50;99.90;;;11.68;72.83;101199.88;5021911;28;20635;-66
2023/05/25 01:38:08;;;;;;;3.00;1.93;;;11.40;99.90;;;11.67;73.31;101211.25;5024198;28;20722;-68
2023/05/25 01:40:35;;;;;;;3.03;2.50;;;11.40;99.90;;;11.62;74.19;101212.47;5033342;28;21270;-67
2023/05/25 01:43:02;;;;;;;2.40;2.07;;;11.40;99.90;;;11.61;73.63;101216.00;5033821;28;20628;-66
2023/05/25 01:45:31;;;;;;;2.50;2.20;;;11.40;99.90;;;11.48;74.68;101208.16;5013641;28;20621;-66
2023/05/25 01:48:40;;;;;;;2.37;1.77;;;11.30;99.90;;;11.42;75.54;101210.34;5012095;28;21157;-65
2023/05/25 01:51:25;;;;;;;2.77;2.33;;;11.20;99.90;;;11.40;75.68;101212.22;5011704;28;20720;-66
2023/05/25 01:54:00;;;;;;;3.73;2.17;;;11.20;99.90;;;11.44;75.50;101219.75;5013074;28;20675;-67
2023/05/25 01:56:30;;;;;;;3.00;2.63;;;11.20;99.90;;;11.48;74.96;101215.16;5013143;28;20968;-66
2023/05/25 01:59:00;;;;;;;2.90;2.17;;;11.20;99.90;;;11.45;75.54;101215.38;5022264;28;20680;-66
2023/05/25 02:01:29;;;;;;;2.17;1.97;;;11.20;99.90;;;11.44;75.82;101209.31;5019290;28;20601;-66
2023/05/25 02:03:56;;;;;;;2.60;1.63;;;11.20;99.90;;;11.44;75.83;101222.38;5017588;28;21040;-66
2023/05/25 02:06:23;;;;;;;2.90;2.33;;;11.20;99.90;;;11.48;75.11;101220.38;5014397;28;20637;-66
2023/05/25 02:08:50;;;;;;;2.50;2.30;;;11.20;99.90;;;11.48;75.78;101223.84;5016202;28;20662;-67
2023/05/25 02:11:17;;;;;;;2.43;2.33;;;11.20;99.90;;;11.46;75.36;101217.88;5035858;28;20714;-66
2023/05/25 02:13:44;;;;;;;1.87;1.77;;;11.20;99.90;;;11.49;75.43;101215.06;5043388;28;20681;-69
2023/05/25 02:16:11;;;;;;;3.60;2.30;;;11.30;99.90;;;11.44;75.32;101218.91;5053000;28;20607;-66
2023/05/25 02:18:38;;;;;;;2.20;2.00;;;11.20;99.90;;;11.37;75.52;101204.59;5026292;28;21248;-68
2023/05/25 02:21:05;;;;;;;2.63;2.20;;;11.20;99.90;;;11.35;75.60;101206.47;5030378;28;20613;-66
2023/05/25 02:23:32;;;;;;;7.60;2.07;;;11.10;99.90;;;11.36;75.41;101200.31;5032682;28;20652;-68
2023/05/25 02:25:59;;;;;;;2.40;2.20;;;11.10;99.90;;;11.32;76.29;101204.91;5024560;28;20640;-66
2023/05/25 02:28:26;;;;;;;5.50;2.20;;;11.10;99.90;;;11.31;76.48;101189.31;5023290;28;21016;-68
2023/05/25 02:30:54;;;;;;;1.87;1.77;;;11.10;99.90;;;11.27;76.72;101185.22;5029983;28;21120;-66
2023/05/25 02:33:21;;;;;;;3.83;2.50;;;11.00;99.90;;;11.21;77.20;101201.31;5028959;28;20636;-66
2023/05/25 02:35:48;;;;;;;4.97;2.20;;;11.00;99.90;;;11.20;77.01;101189.19;5030651;28;20635;-66
2023/05/25 02:38:15;;;;;;;2.60;2.47;;;11.00;99.90;;;11.22;76.79;101197.78;5042337;28;20719;-66
2023/05/25 02:40:42;;;;;;;1.80;1.70;;;11.00;99.90;;;11.19;77.59;101193.56;5032302;28;21579;-66
2023/05/25 02:43:09;;;;;;;2.07;1.93;;;11.00;99.90;;;11.17;76.66;101189.38;5031024;28;20723;-68
2023/05/25 02:45:36;;;;;;;3.90;2.20;;;10.90;99.90;;;11.16;76.76;101188.53;5031634;28;20624;-66
2023/05/25 02:48:03;;;;;;;1.90;1.80;;;10.90;99.90;;;11.13;77.25;101199.22;5013875;28;20656;-68
2023/05/25 02:50:30;;;;;;;2.57;2.20;;;10.90;99.90;;;11.15;77.73;101199.09;5029411;28;20716;-67
2023/05/25 02:52:57;;;;;;;2.07;1.50;;;10.90;99.90;;;11.15;77.22;101206.94;5031696;28;20624;-67
2023/05/25 02:55:24;;;;;;;2.33;2.07;;;10.90;99.90;;;11.12;77.39;101207.97;5018324;28;20772;-66
2023/05/25 02:57:51;;;;;;;1.57;1.47;;;10.90;99.90;;;11.11;76.97;101206.31;5012412;28;20645;-67
2023/05/25 03:00:19;;;;;;;1.80;1.70;;;10.90;99.90;;;11.10;77.62;101203.78;5024862;28;21245;-67
2023/05/25 03:02:47;;;;;;;2.70;2.17;;;10.80;99.90;;;11.09;77.67;101207.34;5026202;28;20640;-67
2023/05/25 03:05:15;;;;;;;2.27;2.03;;;10.80;99.90;;;11.07;78.00;101204.84;5031455;28;20642;-66
2023/05/25 03:07:42;;;;;;;2.20;2.00;;;10.80;99.90;;;11.04;77.44;101209.41;5027389;28;21047;-67
2023/05/25 03:10:10;;;;;;;2.03;1.83;;;10.80;99.90;;;10.98;78.06;101199.34;5011539;28;20728;-67
2023/05/25 03:12:37;;;;;;;3.30;2.00;;;10.80;99.90;;;10.98;78.06;101207.19;5017005;28;20629;-67
2023/05/25 03:15:05;;;;;;;2.70;2.17;;;10.80;99.90;;;10.97;77.20;101202.91;5011218;28;21172;-67
2023/05/25 03:17:32;;;;;;;5.50;2.20;;;10.80;99.90;;;10.95;78.21;101216.06;5015976;28;20696;-68
2023/05/25 03:20:00;;;;;;;5.93;2.30;;;10.80;99.90;;;10.94;78.52;101217.81;5020066;28;20660;-67
2023/05/25 03:22:33;;;;;;;2.40;2.20;;;10.70;99.90;;;10.91;77.75;101215.41;5013021;28;20624;-70
2023/05/25 03:25:03;;;;;;;5.67;2.13;;;10.70;99.90;;;10.86;78.69;101214.06;5016606;28;20678;-68
2023/05/25 03:27:32;;;;;;;2.53;2.33;;;10.70;99.90;;;10.86;78.77;101208.81;5031833;28;20688;-68
2023/05/25 03:30:00;;;;;;;1.97;1.80;;;10.70;99.90;;;10.83;78.14;101211.63;5031393;28;20743;-66
2023/05/25 03:32:27;;;;;;;2.50;1.83;;;10.60;99.90;;;10.82;78.63;101212.53;5024411;28;21217;-67
2023/05/25 03:35:06;;;;;;;2.47;2.20;;;10.60;99.90;;;10.83;78.26;101217.69;5031758;28;20666;-67
2023/05/25 03:37:33;;;;;;;3.17;2.30;;;10.60;99.90;;;10.84;77.81;101214.13;5031068;28;20624;-69
2023/05/25 03:40:00;;;;;;;2.60;1.90;;;10.60;99.90;;;10.86;78.29;101222.69;5031774;28;20675;-68
2023/05/25 03:42:29;;;;;;;1.83;1.73;;;10.60;99.90;;;10.84;77.82;101219.34;5016033;28;20725;-67
2023/05/25 03:44:59;;;;;;;3.77;1.70;;;10.60;99.90;;;10.81;78.60;101216.94;5026736;28;20659;-70
2023/05/25 03:47:29;;;;;;;3.27;1.77;;;10.60;99.90;;;10.81;78.43;101216.94;5009384;28;20734;-68
2023/05/25 03:50:00;;;;;;;1.37;1.37;;;10.60;99.90;;;10.82;78.48;101221.22;5024905;28;20749;-68
2023/05/25 03:52:27;;;;;;;1.67;1.53;;;10.60;99.90;;;10.84;78.67;101224.56;5027463;28;21177;-67
2023/05/25 03:54:54;;;;;;;2.27;2.10;;;10.60;99.90;;;10.88;77.99;101235.69;5011789;28;20625;-68
2023/05/25 03:57:21;;;;;;;2.30;2.10;;;10.60;99.90;;;10.93;78.18;101238.81;5020359;28;20628;-66
2023/05/25 03:59:48;;;;;;;2.80;1.70;;;10.70;99.90;;;11.00;77.61;101241.88;5027618;28;20672;-67
2023/05/25 04:02:15;;;;;;;2.60;1.83;;;10.80;99.90;;;11.10;77.64;101248.16;5017633;28;20619;-68
2023/05/25 04:04:42;;;;;;;2.33;1.93;;;10.80;99.90;;;11.22;77.20;101250.00;5022338;28;21386;-67
2023/05/25 04:07:10;;;;;;;2.30;2.10;;;11.00;99.90;;;11.30;76.28;101258.19;5010143;28;20691;-68
2023/05/25 04:09:37;;;;;;;1.50;1.40;;;11.10;99.90;;;11.41;76.04;101253.09;4988134;28;20648;-67
2023/05/25 04:12:05;;;;;;;2.30;2.10;;;11.20;99.90;;;11.48;75.73;101263.03;5019633;28;20651;-68
2023/05/25 04:14:35;;;;;;;3.47;1.97;;;11.30;99.90;;;11.55;75.35;101266.09;5030314;28;21103;-67
2023/05/25 04:17:02;;;;;;;1.63;1.53;;;11.30;99.90;;;11.66;75.47;101268.84;5022176;28;21047;-63
2023/05/25 04:19:29;;;;;;;2.23;2.13;;;11.40;99.90;;;11.74;74.69;101279.66;5011709;28;20764;-68
2023/05/25 04:21:56;;;;;;;4.20;2.17;;;11.50;99.90;;;11.79;73.91;101280.19;5034107;28;20644;-67
2023/05/25 04:24:23;;;;;;;1.67;1.57;;;11.60;99.90;;;11.85;74.27;101279.78;5026964;28;20640;-66
2023/05/25 04:26:50;;;;;;;2.27;2.07;;;11.60;99.90;;;11.90;74.00;101282.09;5011224;28;20637;-69
2023/05/25 04:29:17;;;;;;;5.00;2.40;;;11.70;99.90;;;11.94;73.89;101280.94;5009123;28;21237;-67
2023/05/25 04:31:45;;;;;;;3.90;2.00;;;11.70;99.90;;;12.05;73.21;101289.72;5010108;28;21219;-67
2023/05/25 04:34:13;;;;;;;2.17;1.70;;;11.80;99.90;;;12.16;72.88;101286.41;5018181;28;21016;-67
2023/05/25 04:36:42;;;;;;;2.50;2.03;;;11.90;99.90;;;12.26;72.66;101288.28;5019949;28;20610;-67
2023/05/25 04:39:09;;;;;;;2.67;2.23;;;12.00;99.90;;;12.32;72.54;101282.63;5012959;28;21087;-68
2023/05/25 04:41:36;;;;;;;2.23;2.13;;;12.10;99.90;;;12.51;71.46;101282.19;5011621;28;20659;-69
2023/05/25 04:44:03;;;;;;;2.10;1.90;;;12.20;99.90;;;12.64;71.21;101274.31;5008383;28;20691;-66
2023/05/25 04:46:36;;;;;;;2.90;2.70;;;12.40;99.90;;;12.80;70.82;101282.78;5010181;28;21190;-69
2023/05/25 04:49:04;;;;;;;2.77;1.70;;;12.60;99.90;;;12.95;69.67;101284.28;5019728;28;20653;-67
2023/05/25 04:51:31;;;;;;;2.27;2.07;;;12.70;99.90;;;13.11;69.72;101282.28;5030843;28;21168;-67
2023/05/25 04:53:58;;;;;;;2.80;2.43;;;12.90;99.90;;;13.14;69.07;101284.66;5028129;28;20632;-67
2023/05/25 04:56:25;;;;;;;2.23;2.00;;;12.90;99.90;;;13.23;69.66;101284.84;5028618;28;20617;-68
2023/05/25 04:58:53;;;;;;;2.33;2.23;;;13.00;99.90;;;13.36;69.15;101287.41;5025624;28;20759;-67
2023/05/25 05:01:20;;;;;;;2.50;2.30;;;13.10;99.90;;;13.49;68.42;101296.03;5020534;28;20756;-67
2023/05/25 05:03:47;;;;;;;2.70;2.03;;;13.30;99.90;;;13.68;68.10;101303.38;5014054;28;20626;-66
2023/05/25 05:06:14;;;;;;;2.83;2.03;;;13.40;99.90;;;13.73;67.31;101296.88;5036208;28;20628;-68
2023/05/25 05:08:41;;;;;;;2.20;1.93;;;13.60;99.90;;;13.86;67.30;101300.22;5033776;28;20723;-68
2023/05/25 05:11:08;;;;;;;2.17;2.07;;;13.70;99.90;;;13.81;67.00;101299.75;5014499;28;20708;-67
2023/05/25 05:13:35;;;;;;;2.20;2.10;;;13.60;99.90;;;13.88;67.38;101290.44;5007716;28;20633;-67
2023/05/25 05:16:01;;;;;;;2.23;1.97;;;13.70;99.90;;;13.97;66.84;101305.50;5010230;28;20616;-67
2023/05/25 05:18:28;;;;;;;2.53;2.30;;;13.80;99.90;;;14.10;66.73;101296.72;5011036;28;20680;-68
2023/05/25 05:20:56;;;;;;;4.60;3.00;;;13.80;99.90;;;14.29;66.12;101294.41;5015575;28;20641;-67
2023/05/25 05:23:23;;;;;;;3.00;2.50;;;14.00;99.90;;;14.51;64.92;101302.25;5026628;28;20616;-71
2023/05/25 05:25:49;;;;;;;2.80;1.87;;;14.20;99.90;;;14.73;64.37;101305.75;5020215;28;20605;-67
2023/05/25 05:28:16;;;;;;;2.40;2.20;;;14.40;99.90;;;14.95;63.41;101299.59;5013652;28;20705;-70
2023/05/25 05:30:45;;;;;;;4.97;2.57;;;14.60;99.90;;;15.08;62.84;101313.44;5028667;28;20706;-67
2023/05/25 05:33:13;;;;;;;2.90;2.60;;;14.80;99.90;;;15.07;62.07;101309.16;5027695;28;20620;-68
2023/05/25 05:35:40;;;;;;;0.73;0.70;;;14.90;99.90;;;15.10;62.09;101314.16;5015070;28;20720;-67
2023/05/25 05:38:08;;;;;;;3.03;1.70;;;14.90;99.90;;;15.32;61.96;101305.38;5017809;28;20716;-66
2023/05/25 05:40:35;;;;;;;5.03;1.80;;;15.00;99.90;;;15.60;60.61;101317.13;5024712;28;20679;-67
2023/05/25 05:43:02;;;;;;;2.77;2.40;;;15.30;99.90;;;15.82;60.34;101309.97;5021200;28;20676;-67
2023/05/25 05:45:29;;;;;;;2.00;1.80;;;15.50;99.90;;;15.99;59.31;101313.84;5021272;28;20691;-69
2023/05/25 05:47:56;;;;;;;2.70;2.50;;;15.70;99.90;;;16.16;58.56;101311.44;5011221;28;20725;-67
2023/05/25 05:50:23;;;;;;;2.97;2.00;;;15.90;99.90;;;16.43;57.20;101312.72;5011825;28;21519;-64
2023/05/25 05:52:50;;;;;;;1.60;1.50;;;16.10;99.90;;;16.42;57.67;101317.13;5020206;28;20644;-65
2023/05/25 05:55:17;;;;;;;1.93;1.40;;;16.10;99.90;;;16.66;57.37;101308.97;5017481;28;21215;-65
2023/05/25 05:57:44;;;;;;;2.23;2.13;;;16.30;99.90;;;16.94;56.33;101309.06;5011557;28;21165;-66
2023/05/25 06:00:12;;;;;;;2.83;2.63;;;16.60;99.90;;;17.18;55.23;101306.06;5011055;28;21212;-65
2023/05/25 06:02:39;;;;;;;4.03;2.87;;;16.80;99.90;;;17.32;54.81;101312.75;5036051;28;20622;-70
2023/05/25 06:05:08;;;;;;;2.47;2.03;;;17.00;99.90;;;17.59;54.19;101315.59;5027116;28;20989;-67
2023/05/25 06:07:36;;;;;;;4.83;2.57;;;17.20;99.90;;;17.86;53.46;101333.34;5022084;28;20706;-65
2023/05/25 06:10:07;;;;;;;2.40;2.30;;;17.50;99.90;;;18.08;52.43;101320.66;5031754;28;20670;-70
2023/05/25 06:12:34;;;;;;;3.83;3.03;;;17.70;99.90;;;17.98;52.37;101316.38;5020436;28;20633;-67
2023/05/25 06:15:02;;;;;;;2.97;1.73;;;17.80;99.90;;;18.04;52.64;101335.13;5030679;28;20593;-67
2023/05/25 06:17:29;;;;;;;3.13;1.80;;;17.80;99.90;;;18.16;52.26;101314.69;5021967;28;20640;-68
2023/05/25 06:19:56;;;;;;;3.10;2.60;;;17.90;99.90;;;17.81;52.94;101329.31;5027621;28;20676;-67
2023/05/25 06:22:26;;;;;;;3.50;2.60;;;17.70;99.90;;;17.95;53.27;101336.00;5027247;28;20632;-68
2023/05/25 06:24:54;;;;;;;2.33;1.83;;;17.70;99.90;;;18.41;52.50;101340.47;5022545;28;20628;-67
2023/05/25 06:27:22;;;;;;;2.70;2.47;;;18.00;99.90;;;19.13;51.11;101337.97;5025888;28;21234;-68
2023/05/25 06:29:49;;;;;;;3.20;2.47;;;18.70;99.90;;;19.47;49.74;101331.09;5015488;28;21275;-67
2023/05/25 06:32:16;;;;;;;3.33;2.33;;;19.10;98.90;;;19.81;48.83;101334.72;5027603;28;21520;-70
2023/05/25 06:34:43;;;;;;;3.87;2.83;;;19.50;98.00;;;20.10;47.31;101327.31;5022251;28;21233;-68
2023/05/25 06:37:10;;;;;;;2.77;2.50;;;19.90;97.00;;;20.40;47.26;101330.56;5024878;28;21293;-67
2023/05/25 06:39:38;;;;;;;4.13;3.00;;;20.10;96.40;;;21.00;45.17;101348.06;5026401;28;21056;-66
2023/05/25 06:42:06;;;;;;;4.90;2.73;;;20.60;94.90;;;21.23;44.36;101335.91;5028873;28;20646;-67
2023/05/25 06:44:33;;;;;;;2.67;2.43;;;21.00;93.70;;;21.45;44.25;101334.44;5024817;28;20735;-67
2023/05/25 06:47:00;;;;;;;2.93;2.27;;;21.10;93.20;;;22.03;43.02;101343.16;5023262;28;20661;-66
2023/05/25 06:49:28;;;;;;;0.93;0.83;;;21.60;92.30;;;22.60;41.26;101349.22;5015581;28;20667;-65
2023/05/25 06:51:55;;;;;;;2.63;2.43;;;22.20;90.70;;;23.12;40.88;101346.88;5018260;28;20659;-67
2023/05/25 06:54:22;;;;;;;2.50;2.13;;;22.80;89.60;;;23.43;39.64;101342.38;5017330;28;20629;-65
2023/05/25 06:56:49;;;;;;;2.33;1.50;;;23.10;86.10;;;23.96;38.70;101352.13;5019871;28;20728;-65
2023/05/25 06:59:17;;;;;;;2.37;2.20;;;23.70;83.90;;;24.30;38.48;101341.84;5026097;28;20679;-66
2023/05/25 07:01:47;;;;;;;2.83;2.40;;;24.00;82.40;;;24.76;38.02;101339.06;5023774;28;20616;-66
2023/05/25 07:04:14;;;;;;;4.17;2.10;;;24.40;80.10;;;24.65;36.67;101359.00;5026603;28;20839;-65
2023/05/25 07:06:41;;;;;;;2.10;2.00;;;24.50;77.00;;;24.94;36.71;101355.50;5047758;28;21027;-68
2023/05/25 07:09:09;;;;;;;2.93;2.63;;;24.60;76.40;;;25.64;36.15;101355.75;5039402;28;20663;-70
2023/05/25 07:11:36;;;;;;;3.27;2.30;;;25.30;74.80;;;25.84;35.04;101341.53;5029724;28;20637;-67
2023/05/25 07:14:02;;;;;;;2.10;2.00;;;25.60;72.40;;;26.34;34.57;101356.59;5027800;28;20724;-67
2023/05/25 07:16:30;;;;;;;1.50;1.40;;;25.90;71.50;;;26.68;33.10;101353.88;5029230;28;20616;-68
2023/05/25 07:18:57;;;;;;;2.90;2.40;;;26.50;68.50;;;27.32;32.95;101341.00;5010653;28;20776;-68
2023/05/25 07:21:26;;;;;;;2.43;2.23;;;27.00;67.50;;;28.02;31.58;101353.13;5019276;28;21192;-68
2023/05/25 07:23:53;;;;;;;2.07;1.90;;;27.70;65.70;;;28.42;31.53;101350.19;5010923;28;21251;-69
2023/05/25 07:26:21;;;;;;;4.13;2.00;;;28.20;63.80;;;28.49;30.73;101344.81;5018821;28;20647;-68
2023/05/25 07:28:48;;;;;;;2.10;2.00;;;28.30;61.60;;;28.80;29.43;101355.69;5031741;28;20759;-67
2023/05/25 07:31:16;;;;;;;2.53;2.30;;;28.90;59.60;;;28.88;29.96;101349.25;5031489;28;20715;-71
2023/05/25 07:33:43;;;;;;;3.60;2.40;;;28.80;58.80;;;28.96;30.04;101340.97;5024635;28;20633;-68
2023/05/25 07:36:11;;;;;;;3.27;1.83;;;28.90;58.40;;;29.39;29.22;101349.25;5029320;28;20718;-68
2023/05/25 07:38:38;;;;;;;1.70;1.60;;;29.30;57.70;;;29.25;28.83;101348.50;5023523;28;20671;-68
2023/05/25 07:41:05;;;;;;;2.40;2.20;;;29.40;56.40;;;29.32;28.82;101349.31;5011838;28;21056;-71
2023/05/25 07:43:32;;;;;;;3.43;2.30;;;29.40;56.20;;;29.32;29.13;101351.16;5009844;28;20725;-69
2023/05/25 07:46:01;;;;;;;2.33;2.13;;;29.40;56.40;;;29.49;29.18;101345.06;5013186;28;20692;-70
2023/05/25 07:48:28;;;;;;;2.73;2.53;;;29.50;55.90;;;29.65;28.84;101354.44;5011513;28;20636;-69
2023/05/25 07:50:55;;;;;;;1.90;1.80;;;29.90;55.10;;;29.47;28.59;101365.13;5028832;28;20714;-68
2023/05/25 07:53:22;;;;;;;1.37;1.37;;;29.70;54.60;;;30.18;27.69;101369.16;5030726;28;20637;-68
2023/05/25 07:55:49;;;;;;;5.43;2.50;;;30.30;54.20;;;29.47;28.59;101360.59;5011242;28;21508;-68
2023/05/25 07:58:16;;;;;;;3.33;2.47;;;29.80;53.90;;;29.76;28.76;101361.84;5013072;28;20705;-70
2023/05/25 08:00:43;;;;;;;2.20;2.00;;;29.80;54.20;;;29.95;27.85;101357.34;5024589;28;20764;-68
2023/05/25 08:03:10;;;;;;;1.90;1.80;;;30.00;53.40;;;29.64;28.14;101355.50;5014475;28;20663;-65
2023/05/25 08:05:38;;;;;;;2.80;2.10;;;30.00;53.30;;;29.84;28.77;101361.56;5017613;28;20689;-67
2023/05/25 08:08:05;;;;;;;2.80;2.60;;;30.00;53.30;;;30.60;27.80;101357.59;5015901;28;20755;-66
2023/05/25 08:10:32;;;;;;;2.33;2.23;;;30.60;52.80;;;30.91;26.71;101359.34;5018906;28;20653;-71
2023/05/25 08:12:59;;;;;;;2.73;2.53;;;31.20;51.30;;;31.26;26.29;101359.53;5012480;28;21478;-68
2023/05/25 08:15:27;;;;;;;2.80;1.97;;;31.40;51.20;;;31.26;26.27;101360.31;5016717;28;20641;-68
2023/05/25 08:17:55;;;;;;;2.63;2.40;;;31.50;50.70;;;31.39;26.38;101357.44;5034111;28;20647;-69
2023/05/25 08:20:23;;;;;;;2.57;2.40;;;31.60;50.40;;;31.43;25.91;101365.94;5017136;28;20680;-66
2023/05/25 08:22:52;;;;;;;4.17;2.23;;;31.80;49.90;;;31.12;26.49;101358.84;5021607;28;20613;-67
2023/05/25 08:25:19;;;;;;;2.83;2.10;;;31.50;50.10;;;31.21;26.46;101370.97;5018794;28;20752;-68
2023/05/25 08:27:47;;;;;;;3.50;2.70;;;31.40;50.50;;;31.37;26.70;101367.63;5026994;28;20656;-67
2023/05/25 08:30:14;;;;;;;2.83;1.93;;;31.50;50.30;;;31.70;25.75;101375.28;5023422;28;20669;-68
2023/05/25 08:32:41;;;;;;;2.90;2.70;;;31.90;49.50;;;31.48;25.97;101366.06;5011740;28;21009;-68
2023/05/25 08:35:08;;;;;;;3.27;2.23;;;31.70;49.20;;;32.22;25.55;101356.59;5041201;28;21219;-68
2023/05/25 08:37:35;;;;;;;1.90;1.80;;;32.40;49.20;;;32.89;24.83;101364.06;5014366;28;21549;-67
2023/05/25 08:40:03;;;;;;;2.70;2.40;;;32.90;48.90;;;32.68;24.46;101362.81;5013850;28;20701;-68
2023/05/25 08:42:30;;;;;;;3.00;2.40;;;32.90;48.10;;;32.70;25.24;101359.88;5024228;28;20646;-68
2023/05/25 08:44:57;;;;;;;2.87;2.53;;;32.90;48.10;;;32.79;24.96;101361.97;5012332;28;20637;-69
2023/05/25 08:47:32;;;;;;;3.30;2.83;;;33.00;47.90;;;32.92;24.16;101370.88;5035792;28;20643;-65
2023/05/25 08:50:00;;;;;;;2.70;2.50;;;33.30;47.50;;;33.47;24.58;101367.41;5046490;28;21258;-68
2023/05/25 08:52:31;;;;;;;2.30;2.20;;;33.50;47.60;;;32.67;24.86;101357.63;5030739;28;21269;-68
2023/05/25 08:55:04;;;;;;;2.90;2.70;;;33.00;47.30;;;33.07;24.84;101363.09;5043357;28;20668;-71
2023/05/25 08:57:47;;;;;;;2.50;2.30;;;33.30;47.10;;;32.62;24.83;101358.38;5011701;28;21234;-70
2023/05/25 09:00:15;;;;;;;2.60;2.40;;;32.90;47.50;;;32.65;24.90;101355.19;5030904;28;21068;-66
2023/05/25 09:03:05;;;;;;;3.17;2.87;;;32.90;47.40;;;31.86;25.60;101353.00;5038263;28;20675;-68
2023/05/25 09:05:36;;;;;;;2.30;2.10;;;32.10;47.90;;;32.00;25.77;101351.78;5038566;28;20613;-66
2023/05/25 09:08:08;;;;;;;2.33;2.20;;;32.20;48.00;;;32.64;24.86;101367.06;5038101;28;20608;-70
2023/05/25 09:10:37;;;;;;;2.63;2.43;;;32.70;47.40;;;33.49;24.62;101354.44;5036427;28;21621;-69
2023/05/25 09:13:05;;;;;;;5.10;3.00;;;33.50;47.10;;;33.71;24.09;101349.19;5028197;28;21378;-68
2023/05/25 09:15:48;;;;;;;2.97;2.40;;;33.90;46.30;;;34.11;23.21;101362.56;5029245;28;21193;-67
2023/05/25 09:18:24;;;;;;;2.83;2.37;;;34.20;46.20;;;34.93;23.09;101369.69;5036307;28;20621;-68
2023/05/25 09:20:51;;;;;;;2.70;1.17;;;34.90;45.90;;;34.79;22.73;101363.00;5019232;28;20672;-66
2023/05/25 09:23:20;;;;;;;3.30;2.97;;;35.10;45.20;;;34.85;22.89;101364.72;5016807;28;20631;-67
2023/05/25 09:25:49;;;;;;;2.40;2.30;;;35.10;45.20;;;34.51;22.93;101360.47;5028344;28;20605;-68
2023/05/25 09:28:19;;;;;;;3.07;2.87;;;34.90;44.80;;;34.34;23.32;101351.53;5013992;28;20645;-69
2023/05/25 09:30:54;;;;;;;2.60;2.40;;;34.70;45.30;;;34.77;22.78;101364.34;5020975;28;20723;-67
2023/05/25 09:33:21;;;;;;;2.60;2.40;;;35.00;44.90;;;33.73;23.84;101349.75;5022587;28;21197;-68
2023/05/25 09:35:48;;;;;;;2.67;2.47;;;34.30;45.00;;;33.49;24.18;101354.44;5009470;28;21149;-67
2023/05/25 09:38:16;;;;;;;2.83;2.60;;;33.80;45.20;;;34.36;22.73;101352.09;5022521;28;20683;-67
2023/05/25 09:40:43;;;;;;;2.70;2.57;;;34.40;45.00;;;34.77;23.58;101358.91;5009891;28;20677;-68
2023/05/25 09:43:12;;;;;;;2.70;2.50;;;35.10;45.00;;;33.80;23.60;101352.28;5028132;28;20637;-67
2023/05/25 09:45:54;;;;;;;3.93;3.57;;;34.30;45.20;;;34.22;23.71;101348.09;5020687;28;20620;-71
2023/05/25 09:48:23;;;;;;;2.80;2.60;;;34.40;45.40;;;33.85;23.83;101352.34;5021982;28;20625;-68
2023/05/25 09:50:50;;;;;;;2.63;2.47;;;34.30;45.00;;;33.82;24.30;101352.88;5030184;28;20758;-67
2023/05/25 09:53:17;;;;;;;2.40;2.30;;;34.00;45.80;;;33.99;23.73;101359.91;5033131;28;21402;-68
2023/05/25 09:55:49;;;;;;;2.57;2.40;;;34.10;45.00;;;33.65;23.79;101362.88;5027032;28;20680;-70
2023/05/25 09:58:23;;;;;;;2.53;1.93;;;33.80;45.30;;;33.37;24.30;101350.16;5019335;28;20657;-66
2023/05/25 10:00:54;;;;;;;2.80;2.60;;;33.50;45.40;;;32.77;25.05;101349.75;5019011;28;20681;-70
2023/05/25 10:03:21;;;;;;;3.43;3.17;;;32.90;46.00;;;32.44;25.18;101352.22;5023100;28;20632;-67
2023/05/25 10:05:49;;;;;;;2.50;2.20;;;32.30;46.90;;;31.98;25.93;101361.16;5015999;28;20621;-67
2023/05/25 10:08:20;;;;;;;3.23;2.93;;;31.60;47.60;;;31.23;27.12;101359.97;5007924;28;21053;-68
2023/05/25 10:10:49;;;;;;;2.43;2.33;;;31.10;48.40;;;30.77;27.59;101355.13;5013284;28;20659;-65
2023/05/25 10:13:27;;;;;;;3.13;2.83;;;30.30;49.20;;;29.70;28.78;101357.31;5016407;28;20641;-66
2023/05/25 10:15:55;;;;;;;3.80;3.40;;;29.50;50.10;;;28.63;30.16;101353.69;5017462;28;21308;-66
2023/05/25 10:18:27;;;;;;;3.30;2.93;;;28.40;50.30;;;27.80;31.51;101355.13;5020859;28;20644;-66